Pagrindinis puslapis
METAR-TAF:

METAR-TAF

Oro uostai :

Livingston County Spencer J. Hardy Airport

Howell, Mičiganas, Jungtinės Amerikos Valstijos

platuma: 42-37-46N, ilguma: 083-59-03W, Aukštis: 293 m

Dabartinis oras

Ataskaita buvo paskelbta 10 minutes, ne 03:15 UTC
Ramus vėjas
Temperatūra 14°C
Drėgmė 77%
Slėgis 1019 hPa
Matomumas: 16.1 km
Giedras dangus

METAR: KOZW 230315Z AUTO 00000KT 10SM CLR 14/10 A3008 RMK AO2 T01400102

Laikas: 23:25 (03:25 UTC)


TAF: trūkstamas

Orai ataskaitas ir orų prognozės (METAR, TAF).

turimą stotys yra geltonos ir raudonos taškus žemėlapyje.

Perkelti pele per norėdami pamatyti stoties vardą.

Tada spustelėkite, norėdami matyti oro stebėjimo ir prognozės.

Norėdami pakeisti žemėlapį: spustelėkite ant žalios mygtukų su juodo kryžiaus žemyn,; žalią mygtuką su brūkšneliu, jei norite nutolinti; arba žalių rodyklių gretimoms žemėlapius.


METAR-TAF: